sensor_id;sensor_type;location;lat;lon;timestamp;temperature;humidity
16178;DHT22;8195;51.220;9.746;2023-01-04T00:05:27;4.70;97.20
16178;DHT22;8195;51.220;9.746;2023-01-04T00:15:27;5.00;97.20
16178;DHT22;8195;51.220;9.746;2023-01-04T00:25:28;5.10;97.20
16178;DHT22;8195;51.220;9.746;2023-01-04T00:35:29;5.20;97.20
16178;DHT22;8195;51.220;9.746;2023-01-04T00:45:30;5.20;97.20
16178;DHT22;8195;51.220;9.746;2023-01-04T00:55:31;5.30;97.20
16178;DHT22;8195;51.220;9.746;2023-01-04T01:05:34;5.10;97.20
16178;DHT22;8195;51.220;9.746;2023-01-04T01:15:35;5.10;97.20
16178;DHT22;8195;51.220;9.746;2023-01-04T01:25:36;5.20;97.20
16178;DHT22;8195;51.220;9.746;2023-01-04T01:35:37;5.30;97.20
16178;DHT22;8195;51.220;9.746;2023-01-04T01:45:38;5.30;97.20
16178;DHT22;8195;51.220;9.746;2023-01-04T01:55:39;5.30;97.20
16178;DHT22;8195;51.220;9.746;2023-01-04T02:05:44;5.20;97.20
16178;DHT22;8195;51.220;9.746;2023-01-04T02:26:09;5.40;97.20
16178;DHT22;8195;51.220;9.746;2023-01-04T02:46:32;5.30;97.20
16178;DHT22;8195;51.220;9.746;2023-01-04T03:07:10;5.40;97.20
16178;DHT22;8195;51.220;9.746;2023-01-04T03:17:13;5.50;97.20
16178;DHT22;8195;51.220;9.746;2023-01-04T03:27:16;5.60;97.20
16178;DHT22;8195;51.220;9.746;2023-01-04T03:37:44;5.80;97.20
16178;DHT22;8195;51.220;9.746;2023-01-04T03:48:21;5.80;97.20
16178;DHT22;8195;51.220;9.746;2023-01-04T03:58:24;5.80;97.20
16178;DHT22;8195;51.220;9.746;2023-01-04T04:08:26;5.90;97.20
16178;DHT22;8195;51.220;9.746;2023-01-04T04:18:26;5.80;97.20
16178;DHT22;8195;51.220;9.746;2023-01-04T04:28:27;5.80;97.20
16178;DHT22;8195;51.220;9.746;2023-01-04T04:38:27;5.90;97.20
16178;DHT22;8195;51.220;9.746;2023-01-04T04:48:28;5.80;97.20
16178;DHT22;8195;51.220;9.746;2023-01-04T04:58:29;5.90;97.20
16178;DHT22;8195;51.220;9.746;2023-01-04T05:08:29;6.00;97.20
16178;DHT22;8195;51.220;9.746;2023-01-04T05:18:30;6.00;97.20
16178;DHT22;8195;51.220;9.746;2023-01-04T05:28:30;6.00;97.20
16178;DHT22;8195;51.220;9.746;2023-01-04T05:38:31;6.10;97.20
16178;DHT22;8195;51.220;9.746;2023-01-04T05:48:32;6.10;97.20
16178;DHT22;8195;51.220;9.746;2023-01-04T05:58:32;6.10;97.20
16178;DHT22;8195;51.220;9.746;2023-01-04T06:08:33;6.10;97.20
16178;DHT22;8195;51.220;9.746;2023-01-04T06:18:33;6.10;97.20
16178;DHT22;8195;51.220;9.746;2023-01-04T06:28:34;6.20;97.20
16178;DHT22;8195;51.220;9.746;2023-01-04T06:38:34;6.20;97.20
16178;DHT22;8195;51.220;9.746;2023-01-04T06:48:35;6.20;97.20
16178;DHT22;8195;51.220;9.746;2023-01-04T06:58:36;6.10;97.20
16178;DHT22;8195;51.220;9.746;2023-01-04T07:08:37;6.10;97.20
16178;DHT22;8195;51.220;9.746;2023-01-04T07:18:37;6.20;97.20
16178;DHT22;8195;51.220;9.746;2023-01-04T07:28:38;6.20;97.20
16178;DHT22;8195;51.220;9.746;2023-01-04T07:38:38;6.30;97.20
16178;DHT22;8195;51.220;9.746;2023-01-04T07:48:39;6.40;97.20
16178;DHT22;8195;51.220;9.746;2023-01-04T07:58:39;6.40;97.20
16178;DHT22;8195;51.220;9.746;2023-01-04T08:08:41;6.50;97.20
16178;DHT22;8195;51.220;9.746;2023-01-04T08:18:41;6.50;97.20
16178;DHT22;8195;51.220;9.746;2023-01-04T08:28:43;6.50;97.20
16178;DHT22;8195;51.220;9.746;2023-01-04T08:38:44;6.60;97.20
16178;DHT22;8195;51.220;9.746;2023-01-04T08:48:44;6.60;97.20
16178;DHT22;8195;51.220;9.746;2023-01-04T08:58:45;6.70;97.20
16178;DHT22;8195;51.220;9.746;2023-01-04T09:08:47;7.00;97.20
16178;DHT22;8195;51.220;9.746;2023-01-04T09:18:47;7.50;97.20
16178;DHT22;8195;51.220;9.746;2023-01-04T09:28:49;6.90;97.20
16178;DHT22;8195;51.220;9.746;2023-01-04T09:38:51;6.90;97.20
16178;DHT22;8195;51.220;9.746;2023-01-04T09:48:57;7.20;97.20
16178;DHT22;8195;51.220;9.746;2023-01-04T09:59:06;7.20;97.20
16178;DHT22;8195;51.220;9.746;2023-01-04T10:09:12;7.10;97.20
16178;DHT22;8195;51.220;9.746;2023-01-04T10:40:20;7.50;97.20
16178;DHT22;8195;51.220;9.746;2023-01-04T10:50:26;7.50;97.20
16178;DHT22;8195;51.220;9.746;2023-01-04T11:01:11;7.60;97.20
16178;DHT22;8195;51.220;9.746;2023-01-04T11:11:28;7.80;97.20
16178;DHT22;8195;51.220;9.746;2023-01-04T11:21:39;7.90;97.20
16178;DHT22;8195;51.220;9.746;2023-01-04T11:31:52;7.90;97.20
16178;DHT22;8195;51.220;9.746;2023-01-04T11:41:54;7.90;97.20
16178;DHT22;8195;51.220;9.746;2023-01-04T11:51:55;7.90;97.20
16178;DHT22;8195;51.220;9.746;2023-01-04T12:02:24;7.90;97.20
16178;DHT22;8195;51.220;9.746;2023-01-04T12:12:29;7.90;97.20
16178;DHT22;8195;51.220;9.746;2023-01-04T12:22:39;8.00;97.20
16178;DHT22;8195;51.220;9.746;2023-01-04T12:32:41;8.00;97.20
16178;DHT22;8195;51.220;9.746;2023-01-04T12:53:48;8.00;97.20
16178;DHT22;8195;51.220;9.746;2023-01-04T13:03:55;8.10;97.20
16178;DHT22;8195;51.220;9.746;2023-01-04T13:24:42;8.20;97.20
16178;DHT22;8195;51.220;9.746;2023-01-04T13:35:15;8.30;97.20
16178;DHT22;8195;51.220;9.746;2023-01-04T13:55:49;8.50;97.20
16178;DHT22;8195;51.220;9.746;2023-01-04T14:05:51;8.60;97.20
16178;DHT22;8195;51.220;9.746;2023-01-04T14:16:11;8.50;97.20
16178;DHT22;8195;51.220;9.746;2023-01-04T14:26:31;8.60;97.20
16178;DHT22;8195;51.220;9.746;2023-01-04T14:36:38;8.50;97.20
16178;DHT22;8195;51.220;9.746;2023-01-04T14:46:41;8.50;97.20
16178;DHT22;8195;51.220;9.746;2023-01-04T14:56:42;8.60;97.20
16178;DHT22;8195;51.220;9.746;2023-01-04T15:06:54;8.50;97.20
16178;DHT22;8195;51.220;9.746;2023-01-04T15:16:55;8.50;97.20
16178;DHT22;8195;51.220;9.746;2023-01-04T15:26:55;8.50;97.20
16178;DHT22;8195;51.220;9.746;2023-01-04T15:36:56;8.50;97.20
16178;DHT22;8195;51.220;9.746;2023-01-04T15:46:56;8.60;97.20
16178;DHT22;8195;51.220;9.746;2023-01-04T15:56:57;8.60;97.20
16178;DHT22;8195;51.220;9.746;2023-01-04T16:17:54;8.70;97.20
16178;DHT22;8195;51.220;9.746;2023-01-04T16:27:55;8.70;97.20
16178;DHT22;8195;51.220;9.746;2023-01-04T16:37:55;8.70;97.20
16178;DHT22;8195;51.220;9.746;2023-01-04T16:47:58;8.80;97.20
16178;DHT22;8195;51.220;9.746;2023-01-04T16:57:58;8.90;97.20
16178;DHT22;8195;51.220;9.746;2023-01-04T17:07:59;8.90;97.20
16178;DHT22;8195;51.220;9.746;2023-01-04T17:17:59;9.00;97.20
16178;DHT22;8195;51.220;9.746;2023-01-04T17:28:00;9.00;97.20
16178;DHT22;8195;51.220;9.746;2023-01-04T17:38:01;9.10;97.20
16178;DHT22;8195;51.220;9.746;2023-01-04T17:48:01;9.20;97.20
16178;DHT22;8195;51.220;9.746;2023-01-04T17:58:02;9.20;97.20
16178;DHT22;8195;51.220;9.746;2023-01-04T18:08:02;9.30;97.20
16178;DHT22;8195;51.220;9.746;2023-01-04T18:18:03;9.30;97.20
16178;DHT22;8195;51.220;9.746;2023-01-04T18:28:04;9.30;97.20
16178;DHT22;8195;51.220;9.746;2023-01-04T18:38:04;9.30;97.20
16178;DHT22;8195;51.220;9.746;2023-01-04T18:48:05;9.30;97.20
16178;DHT22;8195;51.220;9.746;2023-01-04T18:58:05;9.40;97.20
16178;DHT22;8195;51.220;9.746;2023-01-04T19:08:06;9.50;97.20
16178;DHT22;8195;51.220;9.746;2023-01-04T19:18:07;9.50;97.20
16178;DHT22;8195;51.220;9.746;2023-01-04T19:28:09;9.70;97.20
16178;DHT22;8195;51.220;9.746;2023-01-04T19:38:11;9.60;97.20
16178;DHT22;8195;51.220;9.746;2023-01-04T19:48:12;9.60;97.20
16178;DHT22;8195;51.220;9.746;2023-01-04T19:58:13;9.70;97.20
16178;DHT22;8195;51.220;9.746;2023-01-04T20:08:14;10.40;97.20
16178;DHT22;8195;51.220;9.746;2023-01-04T20:18:15;9.80;97.20
16178;DHT22;8195;51.220;9.746;2023-01-04T20:28:16;9.70;97.20
16178;DHT22;8195;51.220;9.746;2023-01-04T20:38:17;9.60;97.20
16178;DHT22;8195;51.220;9.746;2023-01-04T20:48:18;9.60;97.20
16178;DHT22;8195;51.220;9.746;2023-01-04T20:58:18;9.60;97.20
16178;DHT22;8195;51.220;9.746;2023-01-04T21:08:19;9.50;97.20
16178;DHT22;8195;51.220;9.746;2023-01-04T21:18:21;9.50;97.20
16178;DHT22;8195;51.220;9.746;2023-01-04T21:28:22;9.50;97.20
16178;DHT22;8195;51.220;9.746;2023-01-04T21:38:23;9.40;97.20
16178;DHT22;8195;51.220;9.746;2023-01-04T21:48:23;9.30;97.20
16178;DHT22;8195;51.220;9.746;2023-01-04T21:58:24;9.40;97.20
16178;DHT22;8195;51.220;9.746;2023-01-04T22:08:24;9.30;97.20
16178;DHT22;8195;51.220;9.746;2023-01-04T22:18:25;9.30;97.20
16178;DHT22;8195;51.220;9.746;2023-01-04T22:28:26;9.30;97.20
16178;DHT22;8195;51.220;9.746;2023-01-04T22:38:27;9.30;97.20
16178;DHT22;8195;51.220;9.746;2023-01-04T22:48:27;9.30;97.20
16178;DHT22;8195;51.220;9.746;2023-01-04T22:58:28;9.20;97.20
16178;DHT22;8195;51.220;9.746;2023-01-04T23:08:28;9.20;97.20
16178;DHT22;8195;51.220;9.746;2023-01-04T23:18:29;9.20;97.20
16178;DHT22;8195;51.220;9.746;2023-01-04T23:28:30;9.30;97.20
16178;DHT22;8195;51.220;9.746;2023-01-04T23:38:31;9.20;97.20
16178;DHT22;8195;51.220;9.746;2023-01-04T23:48:31;9.20;97.20
16178;DHT22;8195;51.220;9.746;2023-01-04T23:58:32;9.20;97.20
